sensor_id;sensor_type;location;lat;lon;timestamp;pressure;altitude;pressure_sealevel;temperature;humidity
44996;BME280;30729;49.486;10.792;2022-11-03T00:01:06;98233.94;;;5.73;100.00
44996;BME280;30729;49.486;10.792;2022-11-03T00:03:32;98233.47;;;5.78;100.00
44996;BME280;30729;49.486;10.792;2022-11-03T00:05:57;98229.72;;;5.65;100.00
44996;BME280;30729;49.486;10.792;2022-11-03T00:08:38;98228.94;;;5.64;100.00
44996;BME280;30729;49.486;10.792;2022-11-03T00:11:07;98221.63;;;5.27;100.00
44996;BME280;30729;49.486;10.792;2022-11-03T00:13:34;98224.56;;;5.13;100.00
44996;BME280;30729;49.486;10.792;2022-11-03T00:16:00;98220.72;;;5.34;100.00
44996;BME280;30729;49.486;10.792;2022-11-03T00:18:25;98222.16;;;5.45;100.00
44996;BME280;30729;49.486;10.792;2022-11-03T00:21:05;98214.47;;;5.29;100.00
44996;BME280;30729;49.486;10.792;2022-11-03T00:23:33;98223.41;;;5.14;100.00
44996;BME280;30729;49.486;10.792;2022-11-03T00:26:08;98221.00;;;5.16;100.00
44996;BME280;30729;49.486;10.792;2022-11-03T00:28:34;98221.19;;;5.01;100.00
44996;BME280;30729;49.486;10.792;2022-11-03T00:31:01;98217.97;;;5.07;100.00
44996;BME280;30729;49.486;10.792;2022-11-03T00:33:33;98212.22;;;5.21;100.00
44996;BME280;30729;49.486;10.792;2022-11-03T00:35:59;98209.63;;;5.37;100.00
44996;BME280;30729;49.486;10.792;2022-11-03T00:38:26;98215.03;;;5.44;100.00
44996;BME280;30729;49.486;10.792;2022-11-03T00:40:59;98206.16;;;5.56;100.00
44996;BME280;30729;49.486;10.792;2022-11-03T00:43:26;98211.09;;;5.45;100.00
44996;BME280;30729;49.486;10.792;2022-11-03T00:45:52;98199.38;;;5.11;100.00
44996;BME280;30729;49.486;10.792;2022-11-03T00:48:18;98205.28;;;5.09;100.00
44996;BME280;30729;49.486;10.792;2022-11-03T00:51:03;98194.41;;;4.98;100.00
44996;BME280;30729;49.486;10.792;2022-11-03T00:53:30;98191.75;;;4.91;100.00
44996;BME280;30729;49.486;10.792;2022-11-03T00:55:56;98198.94;;;4.85;100.00
44996;BME280;30729;49.486;10.792;2022-11-03T00:58:21;98196.56;;;5.14;100.00
44996;BME280;30729;49.486;10.792;2022-11-03T01:00:47;98188.94;;;4.95;100.00
44996;BME280;30729;49.486;10.792;2022-11-03T01:03:12;98182.44;;;5.09;100.00
44996;BME280;30729;49.486;10.792;2022-11-03T01:05:44;98181.06;;;4.93;100.00
44996;BME280;30729;49.486;10.792;2022-11-03T01:08:32;98186.56;;;4.97;100.00
44996;BME280;30729;49.486;10.792;2022-11-03T01:11:06;98177.38;;;5.03;100.00
44996;BME280;30729;49.486;10.792;2022-11-03T01:13:50;98173.22;;;4.92;100.00
44996;BME280;30729;49.486;10.792;2022-11-03T01:16:15;98166.72;;;5.05;100.00
44996;BME280;30729;49.486;10.792;2022-11-03T01:18:41;98163.72;;;5.20;100.00
44996;BME280;30729;49.486;10.792;2022-11-03T01:21:06;98166.75;;;5.29;100.00
44996;BME280;30729;49.486;10.792;2022-11-03T01:23:34;98169.47;;;5.33;100.00
44996;BME280;30729;49.486;10.792;2022-11-03T01:26:05;98173.28;;;5.39;100.00
44996;BME280;30729;49.486;10.792;2022-11-03T01:28:35;98164.97;;;5.42;100.00
44996;BME280;30729;49.486;10.792;2022-11-03T01:31:09;98161.94;;;5.33;100.00
44996;BME280;30729;49.486;10.792;2022-11-03T01:33:36;98161.22;;;5.29;100.00
44996;BME280;30729;49.486;10.792;2022-11-03T01:36:02;98157.72;;;5.25;100.00
44996;BME280;30729;49.486;10.792;2022-11-03T01:38:31;98154.81;;;5.09;100.00
44996;BME280;30729;49.486;10.792;2022-11-03T01:40:57;98151.91;;;5.19;100.00
44996;BME280;30729;49.486;10.792;2022-11-03T01:43:23;98145.91;;;5.24;100.00
44996;BME280;30729;49.486;10.792;2022-11-03T01:45:56;98137.56;;;5.28;100.00
44996;BME280;30729;49.486;10.792;2022-11-03T01:48:24;98140.81;;;5.23;100.00
44996;BME280;30729;49.486;10.792;2022-11-03T01:50:50;98123.00;;;5.00;100.00
44996;BME280;30729;49.486;10.792;2022-11-03T01:53:17;98129.84;;;4.92;100.00
44996;BME280;30729;49.486;10.792;2022-11-03T01:55:44;98119.91;;;4.95;100.00
44996;BME280;30729;49.486;10.792;2022-11-03T01:58:18;98126.84;;;5.07;100.00
44996;BME280;30729;49.486;10.792;2022-11-03T02:00:48;98121.69;;;5.09;100.00
44996;BME280;30729;49.486;10.792;2022-11-03T02:03:15;98117.22;;;4.91;100.00
44996;BME280;30729;49.486;10.792;2022-11-03T02:05:44;98114.31;;;4.75;100.00
44996;BME280;30729;49.486;10.792;2022-11-03T02:08:14;98102.50;;;4.74;100.00
44996;BME280;30729;49.486;10.792;2022-11-03T02:10:41;98101.91;;;4.60;100.00
44996;BME280;30729;49.486;10.792;2022-11-03T02:13:13;98103.75;;;4.70;100.00
44996;BME280;30729;49.486;10.792;2022-11-03T02:15:40;98096.38;;;4.60;100.00
44996;BME280;30729;49.486;10.792;2022-11-03T02:18:07;98091.59;;;4.64;100.00
44996;BME280;30729;49.486;10.792;2022-11-03T02:20:34;98095.59;;;4.86;100.00
44996;BME280;30729;49.486;10.792;2022-11-03T02:23:16;98088.69;;;5.01;100.00
44996;BME280;30729;49.486;10.792;2022-11-03T02:25:46;98089.41;;;5.05;100.00
44996;BME280;30729;49.486;10.792;2022-11-03T02:28:16;98076.84;;;5.01;100.00
44996;BME280;30729;49.486;10.792;2022-11-03T02:33:53;98072.19;;;4.71;100.00
44996;BME280;30729;49.486;10.792;2022-11-03T02:39:11;98069.56;;;4.87;100.00
44996;BME280;30729;49.486;10.792;2022-11-03T02:41:39;98059.31;;;4.88;100.00
44996;BME280;30729;49.486;10.792;2022-11-03T02:44:10;98066.25;;;4.96;100.00
44996;BME280;30729;49.486;10.792;2022-11-03T02:46:37;98050.91;;;4.95;100.00
44996;BME280;30729;49.486;10.792;2022-11-03T02:49:04;98054.78;;;4.74;100.00
44996;BME280;30729;49.486;10.792;2022-11-03T02:51:29;98052.97;;;4.64;100.00
44996;BME280;30729;49.486;10.792;2022-11-03T02:54:28;98043.34;;;4.48;100.00
44996;BME280;30729;49.486;10.792;2022-11-03T02:56:56;98051.06;;;4.30;100.00
44996;BME280;30729;49.486;10.792;2022-11-03T02:59:26;98043.66;;;4.27;100.00
44996;BME280;30729;49.486;10.792;2022-11-03T03:01:58;98041.25;;;4.29;100.00
44996;BME280;30729;49.486;10.792;2022-11-03T03:04:39;98048.22;;;4.37;100.00
44996;BME280;30729;49.486;10.792;2022-11-03T03:07:07;98039.75;;;4.51;100.00
44996;BME280;30729;49.486;10.792;2022-11-03T03:09:38;98033.59;;;4.67;100.00
44996;BME280;30729;49.486;10.792;2022-11-03T03:12:07;98037.09;;;4.71;100.00
44996;BME280;30729;49.486;10.792;2022-11-03T03:14:37;98033.97;;;4.42;100.00
44996;BME280;30729;49.486;10.792;2022-11-03T03:17:29;98039.34;;;4.26;100.00
44996;BME280;30729;49.486;10.792;2022-11-03T03:19:59;98032.97;;;4.29;100.00
44996;BME280;30729;49.486;10.792;2022-11-03T03:25:57;98007.44;;;3.94;100.00
44996;BME280;30729;49.486;10.792;2022-11-03T03:28:17;98012.19;;;3.90;100.00
44996;BME280;30729;49.486;10.792;2022-11-03T03:30:45;98012.03;;;4.04;100.00
44996;BME280;30729;49.486;10.792;2022-11-03T03:33:14;98005.88;;;3.93;100.00
44996;BME280;30729;49.486;10.792;2022-11-03T03:35:43;98001.09;;;3.97;100.00
44996;BME280;30729;49.486;10.792;2022-11-03T03:38:15;97996.97;;;4.13;100.00
44996;BME280;30729;49.486;10.792;2022-11-03T03:40:43;97994.00;;;4.27;100.00
44996;BME280;30729;49.486;10.792;2022-11-03T03:43:12;97989.78;;;4.46;100.00
44996;BME280;30729;49.486;10.792;2022-11-03T03:45:40;97993.47;;;4.63;100.00
44996;BME280;30729;49.486;10.792;2022-11-03T03:48:07;97999.47;;;4.81;100.00
44996;BME280;30729;49.486;10.792;2022-11-03T03:50:34;97983.09;;;4.94;100.00
44996;BME280;30729;49.486;10.792;2022-11-03T03:53:06;97992.41;;;5.03;100.00
44996;BME280;30729;49.486;10.792;2022-11-03T03:55:42;97976.94;;;5.10;100.00
44996;BME280;30729;49.486;10.792;2022-11-03T03:58:11;97968.69;;;5.06;100.00
44996;BME280;30729;49.486;10.792;2022-11-03T04:00:37;97979.19;;;4.68;100.00
44996;BME280;30729;49.486;10.792;2022-11-03T04:03:05;97974.50;;;4.41;100.00
44996;BME280;30729;49.486;10.792;2022-11-03T04:05:31;97976.69;;;4.26;100.00
44996;BME280;30729;49.486;10.792;2022-11-03T04:07:56;97977.78;;;4.33;100.00
44996;BME280;30729;49.486;10.792;2022-11-03T04:10:23;97977.78;;;4.33;100.00
44996;BME280;30729;49.486;10.792;2022-11-03T04:12:49;97983.97;;;4.40;100.00
44996;BME280;30729;49.486;10.792;2022-11-03T04:15:53;97983.28;;;4.33;100.00
44996;BME280;30729;49.486;10.792;2022-11-03T04:18:37;97976.50;;;4.10;100.00
44996;BME280;30729;49.486;10.792;2022-11-03T04:21:21;97981.88;;;4.21;100.00
44996;BME280;30729;49.486;10.792;2022-11-03T04:24:04;97980.22;;;4.27;100.00
44996;BME280;30729;49.486;10.792;2022-11-03T04:26:30;97966.44;;;4.27;100.00
44996;BME280;30729;49.486;10.792;2022-11-03T04:28:56;97957.25;;;4.34;100.00
44996;BME280;30729;49.486;10.792;2022-11-03T04:31:21;97961.66;;;4.31;100.00
44996;BME280;30729;49.486;10.792;2022-11-03T04:33:47;97951.09;;;4.26;100.00
44996;BME280;30729;49.486;10.792;2022-11-03T04:36:22;97959.72;;;4.28;100.00
44996;BME280;30729;49.486;10.792;2022-11-03T04:38:48;97947.28;;;4.16;100.00
44996;BME280;30729;49.486;10.792;2022-11-03T04:41:19;97950.56;;;4.08;100.00
44996;BME280;30729;49.486;10.792;2022-11-03T04:43:45;97943.28;;;4.21;100.00
44996;BME280;30729;49.486;10.792;2022-11-03T04:46:14;97947.88;;;4.31;100.00
44996;BME280;30729;49.486;10.792;2022-11-03T04:48:40;97941.63;;;4.27;100.00
44996;BME280;30729;49.486;10.792;2022-11-03T04:51:16;97938.47;;;4.25;100.00
44996;BME280;30729;49.486;10.792;2022-11-03T04:53:55;97938.53;;;4.21;100.00
44996;BME280;30729;49.486;10.792;2022-11-03T04:56:23;97932.16;;;4.01;100.00
44996;BME280;30729;49.486;10.792;2022-11-03T04:58:50;97934.13;;;4.00;100.00
44996;BME280;30729;49.486;10.792;2022-11-03T05:01:18;97925.00;;;4.03;100.00
44996;BME280;30729;49.486;10.792;2022-11-03T05:03:45;97926.34;;;3.95;100.00
44996;BME280;30729;49.486;10.792;2022-11-03T05:06:17;97915.19;;;4.02;100.00
44996;BME280;30729;49.486;10.792;2022-11-03T05:08:52;97919.06;;;4.09;100.00
44996;BME280;30729;49.486;10.792;2022-11-03T05:11:43;97915.88;;;4.10;100.00
44996;BME280;30729;49.486;10.792;2022-11-03T05:14:28;97909.09;;;4.15;100.00
44996;BME280;30729;49.486;10.792;2022-11-03T05:16:56;97903.94;;;4.17;100.00
44996;BME280;30729;49.486;10.792;2022-11-03T05:19:38;97907.84;;;4.19;100.00
44996;BME280;30729;49.486;10.792;2022-11-03T05:22:13;97895.31;;;4.15;100.00
44996;BME280;30729;49.486;10.792;2022-11-03T05:24:39;97890.13;;;3.93;100.00
44996;BME280;30729;49.486;10.792;2022-11-03T05:27:19;97880.25;;;3.69;100.00
44996;BME280;30729;49.486;10.792;2022-11-03T05:29:46;97881.38;;;3.71;100.00
44996;BME280;30729;49.486;10.792;2022-11-03T05:32:18;97887.16;;;3.81;100.00
44996;BME280;30729;49.486;10.792;2022-11-03T05:34:49;97882.34;;;3.88;100.00
44996;BME280;30729;49.486;10.792;2022-11-03T05:37:30;97876.25;;;4.00;100.00
44996;BME280;30729;49.486;10.792;2022-11-03T05:40:08;97869.72;;;4.14;100.00
44996;BME280;30729;49.486;10.792;2022-11-03T05:42:41;97867.56;;;4.25;100.00
44996;BME280;30729;49.486;10.792;2022-11-03T05:45:20;97861.28;;;4.25;100.00
44996;BME280;30729;49.486;10.792;2022-11-03T05:47:47;97856.63;;;4.22;100.00
44996;BME280;30729;49.486;10.792;2022-11-03T05:50:18;97855.03;;;4.21;100.00
44996;BME280;30729;49.486;10.792;2022-11-03T05:52:46;97847.25;;;4.16;100.00
44996;BME280;30729;49.486;10.792;2022-11-03T05:55:23;97845.16;;;4.00;100.00
44996;BME280;30729;49.486;10.792;2022-11-03T05:57:51;97852.78;;;3.89;100.00
44996;BME280;30729;49.486;10.792;2022-11-03T06:00:24;97850.81;;;3.89;100.00
44996;BME280;30729;49.486;10.792;2022-11-03T06:02:52;97843.13;;;3.77;100.00
44996;BME280;30729;49.486;10.792;2022-11-03T06:05:20;97846.25;;;3.79;100.00
44996;BME280;30729;49.486;10.792;2022-11-03T06:07:46;97853.28;;;3.84;100.00
44996;BME280;30729;49.486;10.792;2022-11-03T06:10:33;97855.75;;;4.01;100.00
44996;BME280;30729;49.486;10.792;2022-11-03T06:13:03;97855.94;;;4.14;100.00
44996;BME280;30729;49.486;10.792;2022-11-03T06:15:32;97859.31;;;4.25;100.00
44996;BME280;30729;49.486;10.792;2022-11-03T06:17:59;97855.41;;;4.23;100.00
44996;BME280;30729;49.486;10.792;2022-11-03T06:20:26;97851.41;;;4.27;100.00
44996;BME280;30729;49.486;10.792;2022-11-03T06:22:53;97851.69;;;4.33;100.00
44996;BME280;30729;49.486;10.792;2022-11-03T06:25:27;97843.66;;;4.19;100.00
44996;BME280;30729;49.486;10.792;2022-11-03T06:27:56;97838.84;;;3.99;100.00
44996;BME280;30729;49.486;10.792;2022-11-03T06:30:30;97842.50;;;3.93;100.00
44996;BME280;30729;49.486;10.792;2022-11-03T06:33:05;97846.41;;;3.95;100.00
44996;BME280;30729;49.486;10.792;2022-11-03T06:35:34;97853.72;;;4.06;100.00
44996;BME280;30729;49.486;10.792;2022-11-03T06:38:00;97857.50;;;4.15;100.00
44996;BME280;30729;49.486;10.792;2022-11-03T06:40:34;97852.41;;;4.14;100.00
44996;BME280;30729;49.486;10.792;2022-11-03T06:43:11;97848.88;;;4.13;100.00
44996;BME280;30729;49.486;10.792;2022-11-03T06:45:38;97842.69;;;4.06;100.00
44996;BME280;30729;49.486;10.792;2022-11-03T06:48:13;97852.03;;;4.12;100.00
44996;BME280;30729;49.486;10.792;2022-11-03T06:50:43;97850.88;;;4.13;100.00
44996;BME280;30729;49.486;10.792;2022-11-03T06:53:08;97851.25;;;4.11;100.00
44996;BME280;30729;49.486;10.792;2022-11-03T06:55:36;97850.31;;;4.21;100.00
44996;BME280;30729;49.486;10.792;2022-11-03T06:58:14;97850.56;;;4.31;100.00
44996;BME280;30729;49.486;10.792;2022-11-03T07:00:41;97839.69;;;4.43;100.00
44996;BME280;30729;49.486;10.792;2022-11-03T07:05:57;97832.78;;;4.55;100.00
44996;BME280;30729;49.486;10.792;2022-11-03T07:10:59;97835.22;;;4.73;100.00
44996;BME280;30729;49.486;10.792;2022-11-03T07:13:26;97831.25;;;4.74;100.00
44996;BME280;30729;49.486;10.792;2022-11-03T07:15:53;97826.31;;;4.85;100.00
44996;BME280;30729;49.486;10.792;2022-11-03T07:18:24;97811.97;;;4.94;100.00
44996;BME280;30729;49.486;10.792;2022-11-03T07:20:52;97820.53;;;4.79;100.00
44996;BME280;30729;49.486;10.792;2022-11-03T07:23:28;97814.56;;;4.81;100.00
44996;BME280;30729;49.486;10.792;2022-11-03T07:26:00;97809.56;;;4.76;100.00
44996;BME280;30729;49.486;10.792;2022-11-03T07:28:34;97815.28;;;4.85;100.00
44996;BME280;30729;49.486;10.792;2022-11-03T07:31:13;97807.63;;;4.73;100.00
44996;BME280;30729;49.486;10.792;2022-11-03T07:33:39;97812.19;;;4.83;100.00
44996;BME280;30729;49.486;10.792;2022-11-03T07:36:05;97802.91;;;4.93;100.00
44996;BME280;30729;49.486;10.792;2022-11-03T07:38:31;97801.25;;;5.16;100.00
44996;BME280;30729;49.486;10.792;2022-11-03T07:40:58;97804.94;;;5.29;100.00
44996;BME280;30729;49.486;10.792;2022-11-03T07:43:28;97797.22;;;5.40;100.00
44996;BME280;30729;49.486;10.792;2022-11-03T07:45:57;97786.81;;;5.44;100.00
44996;BME280;30729;49.486;10.792;2022-11-03T07:48:25;97784.63;;;5.55;100.00
44996;BME280;30729;49.486;10.792;2022-11-03T07:50:55;97777.69;;;5.47;100.00
44996;BME280;30729;49.486;10.792;2022-11-03T07:55:58;97764.69;;;5.80;100.00
44996;BME280;30729;49.486;10.792;2022-11-03T07:58:34;97756.75;;;6.15;100.00
44996;BME280;30729;49.486;10.792;2022-11-03T08:01:00;97746.84;;;6.47;100.00
44996;BME280;30729;49.486;10.792;2022-11-03T08:03:39;97746.63;;;6.83;100.00
44996;BME280;30729;49.486;10.792;2022-11-03T08:06:06;97754.78;;;7.03;100.00
44996;BME280;30729;49.486;10.792;2022-11-03T08:08:32;97753.69;;;7.26;100.00
44996;BME280;30729;49.486;10.792;2022-11-03T08:10:57;97748.06;;;7.42;100.00
44996;BME280;30729;49.486;10.792;2022-11-03T08:13:22;97733.66;;;7.60;100.00
44996;BME280;30729;49.486;10.792;2022-11-03T08:15:48;97721.06;;;7.81;100.00
44996;BME280;30729;49.486;10.792;2022-11-03T08:18:13;97731.16;;;8.00;100.00
44996;BME280;30729;49.486;10.792;2022-11-03T08:20:38;97727.50;;;7.91;100.00
44996;BME280;30729;49.486;10.792;2022-11-03T08:23:04;97723.41;;;7.95;100.00
44996;BME280;30729;49.486;10.792;2022-11-03T08:25:29;97710.47;;;8.14;100.00
44996;BME280;30729;49.486;10.792;2022-11-03T08:27:55;97696.88;;;8.29;100.00
44996;BME280;30729;49.486;10.792;2022-11-03T08:30:20;97691.75;;;8.40;100.00
44996;BME280;30729;49.486;10.792;2022-11-03T08:32:46;97688.94;;;8.53;100.00
44996;BME280;30729;49.486;10.792;2022-11-03T08:35:11;97679.31;;;8.67;100.00
44996;BME280;30729;49.486;10.792;2022-11-03T08:37:36;97677.81;;;8.75;100.00
44996;BME280;30729;49.486;10.792;2022-11-03T08:40:02;97683.72;;;8.86;100.00
44996;BME280;30729;49.486;10.792;2022-11-03T08:42:28;97676.69;;;8.94;100.00
44996;BME280;30729;49.486;10.792;2022-11-03T08:44:53;97674.41;;;9.02;100.00
44996;BME280;30729;49.486;10.792;2022-11-03T08:47:19;97658.91;;;9.14;100.00
44996;BME280;30729;49.486;10.792;2022-11-03T08:49:44;97652.97;;;9.43;100.00
44996;BME280;30729;49.486;10.792;2022-11-03T08:52:10;97658.97;;;9.32;100.00
44996;BME280;30729;49.486;10.792;2022-11-03T08:54:36;97648.50;;;9.45;100.00
44996;BME280;30729;49.486;10.792;2022-11-03T08:57:01;97654.84;;;9.55;100.00
44996;BME280;30729;49.486;10.792;2022-11-03T08:59:26;97651.03;;;9.71;100.00
44996;BME280;30729;49.486;10.792;2022-11-03T09:01:52;97640.38;;;9.69;100.00
44996;BME280;30729;49.486;10.792;2022-11-03T09:04:17;97624.78;;;9.90;100.00
44996;BME280;30729;49.486;10.792;2022-11-03T09:06:42;97619.25;;;10.36;100.00
44996;BME280;30729;49.486;10.792;2022-11-03T09:09:08;97622.94;;;10.61;100.00
44996;BME280;30729;49.486;10.792;2022-11-03T09:11:33;97619.94;;;10.82;100.00
44996;BME280;30729;49.486;10.792;2022-11-03T09:13:58;97605.81;;;10.95;100.00
44996;BME280;30729;49.486;10.792;2022-11-03T09:16:24;97597.16;;;10.93;100.00
44996;BME280;30729;49.486;10.792;2022-11-03T09:18:49;97593.97;;;11.09;100.00
44996;BME280;30729;49.486;10.792;2022-11-03T09:21:15;97588.06;;;11.17;100.00
44996;BME280;30729;49.486;10.792;2022-11-03T09:23:40;97580.69;;;11.04;100.00
44996;BME280;30729;49.486;10.792;2022-11-03T09:26:06;97582.09;;;11.00;100.00
44996;BME280;30729;49.486;10.792;2022-11-03T09:28:31;97577.84;;;11.14;100.00
44996;BME280;30729;49.486;10.792;2022-11-03T09:30:57;97575.19;;;11.19;100.00
44996;BME280;30729;49.486;10.792;2022-11-03T09:33:22;97567.25;;;11.27;100.00
44996;BME280;30729;49.486;10.792;2022-11-03T09:35:48;97575.34;;;11.73;100.00
44996;BME280;30729;49.486;10.792;2022-11-03T09:38:13;97572.44;;;11.43;100.00
44996;BME280;30729;49.486;10.792;2022-11-03T09:40:38;97569.25;;;11.59;100.00
44996;BME280;30729;49.486;10.792;2022-11-03T09:43:04;97568.94;;;11.81;100.00
44996;BME280;30729;49.486;10.792;2022-11-03T09:45:30;97569.09;;;11.78;100.00
44996;BME280;30729;49.486;10.792;2022-11-03T09:47:56;97558.41;;;11.76;100.00
44996;BME280;30729;49.486;10.792;2022-11-03T09:50:21;97567.06;;;12.02;100.00
44996;BME280;30729;49.486;10.792;2022-11-03T09:52:47;97569.09;;;11.78;100.00
44996;BME280;30729;49.486;10.792;2022-11-03T09:55:25;97562.66;;;12.10;100.00
44996;BME280;30729;49.486;10.792;2022-11-03T09:57:53;97555.03;;;11.96;100.00
44996;BME280;30729;49.486;10.792;2022-11-03T10:00:20;97549.56;;;11.78;100.00
44996;BME280;30729;49.486;10.792;2022-11-03T10:02:47;97540.63;;;12.13;100.00
44996;BME280;30729;49.486;10.792;2022-11-03T10:05:14;97526.19;;;12.44;100.00
44996;BME280;30729;49.486;10.792;2022-11-03T10:07:42;97513.75;;;12.59;100.00
44996;BME280;30729;49.486;10.792;2022-11-03T10:10:14;97504.41;;;12.63;100.00
44996;BME280;30729;49.486;10.792;2022-11-03T10:12:41;97488.66;;;12.80;100.00
44996;BME280;30729;49.486;10.792;2022-11-03T10:15:13;97497.69;;;13.04;100.00
44996;BME280;30729;49.486;10.792;2022-11-03T10:17:40;97492.22;;;13.30;100.00
44996;BME280;30729;49.486;10.792;2022-11-03T10:20:12;97500.94;;;13.58;100.00
44996;BME280;30729;49.486;10.792;2022-11-03T10:22:39;97504.16;;;13.31;100.00
44996;BME280;30729;49.486;10.792;2022-11-03T10:31:03;97502.44;;;13.19;100.00
44996;BME280;30729;49.486;10.792;2022-11-03T10:33:37;97499.75;;;13.24;100.00
44996;BME280;30729;49.486;10.792;2022-11-03T10:36:21;97503.19;;;13.54;100.00
44996;BME280;30729;49.486;10.792;2022-11-03T10:38:47;97493.69;;;13.67;100.00
44996;BME280;30729;49.486;10.792;2022-11-03T10:41:19;97499.16;;;14.02;100.00
44996;BME280;30729;49.486;10.792;2022-11-03T10:46:36;97486.94;;;14.31;100.00
44996;BME280;30729;49.486;10.792;2022-11-03T10:51:31;97483.72;;;14.70;100.00
44996;BME280;30729;49.486;10.792;2022-11-03T10:53:56;97473.06;;;14.74;100.00
44996;BME280;30729;49.486;10.792;2022-11-03T10:56:22;97465.56;;;14.59;100.00
44996;BME280;30729;49.486;10.792;2022-11-03T10:58:47;97463.88;;;15.16;100.00
44996;BME280;30729;49.486;10.792;2022-11-03T11:01:13;97449.88;;;15.22;100.00
44996;BME280;30729;49.486;10.792;2022-11-03T11:03:41;97438.13;;;15.18;100.00
44996;BME280;30729;49.486;10.792;2022-11-03T11:06:27;97441.81;;;14.92;100.00
44996;BME280;30729;49.486;10.792;2022-11-03T11:08:59;97445.41;;;14.55;100.00
44996;BME280;30729;49.486;10.792;2022-11-03T11:11:25;97441.88;;;14.03;100.00
44996;BME280;30729;49.486;10.792;2022-11-03T11:17:00;97429.72;;;14.11;100.00
44996;BME280;30729;49.486;10.792;2022-11-03T11:19:27;97435.31;;;14.38;100.00
44996;BME280;30729;49.486;10.792;2022-11-03T11:30:03;97399.22;;;14.14;100.00
44996;BME280;30729;49.486;10.792;2022-11-03T11:37:50;97384.75;;;14.52;100.00
44996;BME280;30729;49.486;10.792;2022-11-03T11:48:37;97373.81;;;14.54;100.00
44996;BME280;30729;49.486;10.792;2022-11-03T11:51:07;97376.28;;;14.47;100.00
44996;BME280;30729;49.486;10.792;2022-11-03T11:53:41;97367.28;;;14.37;100.00
44996;BME280;30729;49.486;10.792;2022-11-03T11:56:10;97362.72;;;14.02;100.00
44996;BME280;30729;49.486;10.792;2022-11-03T11:58:49;97359.09;;;13.96;100.00
44996;BME280;30729;49.486;10.792;2022-11-03T12:01:33;97353.53;;;14.02;100.00
44996;BME280;30729;49.486;10.792;2022-11-03T12:04:04;97359.69;;;14.06;100.00
44996;BME280;30729;49.486;10.792;2022-11-03T12:06:35;97351.75;;;14.04;100.00
44996;BME280;30729;49.486;10.792;2022-11-03T12:11:53;97336.63;;;13.91;100.00
44996;BME280;30729;49.486;10.792;2022-11-03T12:16:54;97322.50;;;13.74;100.00
44996;BME280;30729;49.486;10.792;2022-11-03T12:19:39;97310.47;;;13.62;100.00
44996;BME280;30729;49.486;10.792;2022-11-03T12:25:03;97297.75;;;13.61;100.00
44996;BME280;30729;49.486;10.792;2022-11-03T12:29:59;97290.53;;;13.54;100.00
44996;BME280;30729;49.486;10.792;2022-11-03T12:32:25;97287.91;;;13.45;100.00
44996;BME280;30729;49.486;10.792;2022-11-03T12:34:51;97291.81;;;13.53;100.00
44996;BME280;30729;49.486;10.792;2022-11-03T12:37:18;97284.13;;;13.48;100.00
44996;BME280;30729;49.486;10.792;2022-11-03T12:39:44;97281.41;;;13.28;100.00
44996;BME280;30729;49.486;10.792;2022-11-03T12:42:09;97294.66;;;13.33;100.00
44996;BME280;30729;49.486;10.792;2022-11-03T12:44:35;97286.09;;;13.42;100.00
44996;BME280;30729;49.486;10.792;2022-11-03T12:47:00;97288.41;;;13.44;100.00
44996;BME280;30729;49.486;10.792;2022-11-03T12:49:26;97289.72;;;13.48;100.00
44996;BME280;30729;49.486;10.792;2022-11-03T12:51:51;97278.09;;;13.55;100.00
44996;BME280;30729;49.486;10.792;2022-11-03T12:54:16;97264.91;;;13.62;100.00
44996;BME280;30729;49.486;10.792;2022-11-03T12:56:42;97264.91;;;13.62;100.00
44996;BME280;30729;49.486;10.792;2022-11-03T12:59:07;97260.44;;;13.44;100.00
44996;BME280;30729;49.486;10.792;2022-11-03T13:01:33;97256.38;;;13.19;100.00
44996;BME280;30729;49.486;10.792;2022-11-03T13:03:59;97252.28;;;13.20;100.00
44996;BME280;30729;49.486;10.792;2022-11-03T13:06:24;97242.56;;;13.09;100.00
44996;BME280;30729;49.486;10.792;2022-11-03T13:08:50;97241.69;;;13.24;100.00
44996;BME280;30729;49.486;10.792;2022-11-03T13:11:15;97240.56;;;13.16;100.00
44996;BME280;30729;49.486;10.792;2022-11-03T13:14:00;97227.34;;;13.16;100.00
44996;BME280;30729;49.486;10.792;2022-11-03T13:16:25;97226.75;;;13.06;100.00
44996;BME280;30729;49.486;10.792;2022-11-03T13:18:51;97225.66;;;12.98;100.00
44996;BME280;30729;49.486;10.792;2022-11-03T13:21:16;97226.50;;;13.04;100.00
44996;BME280;30729;49.486;10.792;2022-11-03T13:23:42;97213.28;;;13.05;100.00
44996;BME280;30729;49.486;10.792;2022-11-03T13:26:07;97209.34;;;12.91;100.00
44996;BME280;30729;49.486;10.792;2022-11-03T13:28:32;97206.25;;;12.89;100.00
44996;BME280;30729;49.486;10.792;2022-11-03T13:30:58;97201.13;;;12.82;100.00
44996;BME280;30729;49.486;10.792;2022-11-03T13:33:23;97196.28;;;12.82;100.00
44996;BME280;30729;49.486;10.792;2022-11-03T13:35:49;97194.19;;;12.77;100.00
44996;BME280;30729;49.486;10.792;2022-11-03T13:38:14;97190.47;;;12.86;100.00
44996;BME280;30729;49.486;10.792;2022-11-03T13:40:39;97187.72;;;12.66;100.00
44996;BME280;30729;49.486;10.792;2022-11-03T13:43:05;97181.16;;;12.69;100.00
44996;BME280;30729;49.486;10.792;2022-11-03T13:45:30;97177.47;;;12.57;100.00
44996;BME280;30729;49.486;10.792;2022-11-03T13:47:56;97182.91;;;12.66;100.00
44996;BME280;30729;49.486;10.792;2022-11-03T13:50:22;97182.56;;;12.58;100.00
44996;BME280;30729;49.486;10.792;2022-11-03T13:52:48;97181.88;;;12.43;100.00
44996;BME280;30729;49.486;10.792;2022-11-03T13:55:13;97184.84;;;12.34;100.00
44996;BME280;30729;49.486;10.792;2022-11-03T13:57:38;97165.75;;;12.32;100.00
44996;BME280;30729;49.486;10.792;2022-11-03T14:00:05;97158.66;;;12.31;100.00
44996;BME280;30729;49.486;10.792;2022-11-03T14:02:31;97154.63;;;12.12;100.00